createdAt,value
2022-11-19T00:02:07.894Z,8.25
2022-11-19T00:04:36.345Z,9.50
2022-11-19T00:07:04.599Z,9.90
2022-11-19T00:09:34.407Z,10.40
2022-11-19T00:12:20.211Z,10.82
2022-11-19T00:14:48.626Z,10.30
2022-11-19T00:17:16.705Z,9.75
2022-11-19T00:19:45.269Z,9.10
2022-11-19T00:22:13.458Z,8.80
2022-11-19T00:24:43.112Z,10.15
2022-11-19T00:27:11.290Z,9.68
2022-11-19T00:29:39.737Z,9.98
2022-11-19T00:32:07.961Z,9.07
2022-11-19T00:34:36.378Z,10.25
2022-11-19T00:37:04.469Z,9.48
2022-11-19T00:39:33.223Z,10.10
2022-11-19T00:42:02.585Z,9.93
2022-11-19T00:44:36.748Z,10.57
2022-11-19T00:47:05.660Z,10.63
2022-11-19T00:49:34.168Z,9.85
2022-11-19T00:52:02.398Z,9.85
2022-11-19T00:54:30.760Z,9.35
2022-11-19T00:56:58.843Z,9.77
2022-11-19T00:59:28.713Z,10.13
2022-11-19T01:01:56.822Z,9.07
2022-11-19T01:04:25.363Z,9.63
2022-11-19T01:06:53.430Z,9.75
2022-11-19T01:09:22.086Z,8.90
2022-11-19T01:11:50.428Z,9.60
2022-11-19T01:14:18.787Z,9.00
2022-11-19T01:16:48.199Z,9.32
2022-11-19T01:19:17.324Z,9.95
2022-11-19T01:21:45.572Z,9.82
2022-11-19T01:24:14.027Z,10.52
2022-11-19T01:26:45.882Z,9.65
2022-11-19T01:29:14.715Z,10.25
2022-11-19T01:31:42.775Z,9.30
2022-11-19T01:34:12.598Z,9.73
2022-11-19T01:36:40.727Z,9.73
2022-11-19T01:39:09.263Z,9.32
2022-11-19T01:41:37.373Z,9.60
2022-11-19T01:44:07.324Z,10.20
2022-11-19T01:46:37.347Z,10.50
2022-11-19T01:49:08.295Z,10.03
2022-11-19T01:51:39.677Z,10.80
2022-11-19T01:54:12.363Z,11.00
2022-11-19T01:56:40.762Z,10.77
2022-11-19T01:59:12.055Z,11.30
2022-11-19T02:01:40.272Z,10.52
2022-11-19T02:04:09.191Z,10.90
2022-11-19T02:06:39.271Z,11.30
2022-11-19T02:09:08.056Z,10.68
2022-11-19T02:11:53.280Z,11.55
2022-11-19T02:14:54.839Z,11.07
2022-11-19T02:17:36.259Z,9.93
2022-11-19T02:20:37.252Z,10.32
2022-11-19T02:23:45.790Z,11.10
2022-11-19T02:26:48.361Z,10.57
2022-11-19T02:29:24.590Z,11.15
2022-11-19T02:31:58.784Z,10.45
2022-11-19T02:34:30.671Z,12.45
2022-11-19T02:37:02.137Z,11.63
2022-11-19T02:42:05.903Z,11.70
2022-11-19T02:44:54.481Z,11.70
2022-11-19T02:47:28.758Z,11.02
2022-11-19T02:50:00.290Z,11.73
2022-11-19T02:52:28.912Z,11.73
2022-11-19T02:54:57.066Z,11.85
2022-11-19T02:57:25.460Z,11.30
2022-11-19T03:00:15.214Z,12.07
2022-11-19T03:03:05.314Z,11.38
2022-11-19T03:05:37.312Z,12.00
2022-11-19T03:08:07.218Z,11.52
2022-11-19T03:10:41.099Z,11.75
2022-11-19T03:13:27.407Z,11.43
2022-11-19T03:16:15.449Z,11.82
2022-11-19T03:18:52.364Z,12.00
2022-11-19T03:21:23.103Z,11.68
2022-11-19T03:23:55.981Z,11.27
2022-11-19T03:26:27.329Z,11.50
2022-11-19T03:28:58.053Z,11.15
2022-11-19T03:31:27.545Z,12.10
2022-11-19T03:34:01.963Z,10.88
2022-11-19T03:36:33.433Z,10.60
2022-11-19T03:39:06.019Z,12.82
2022-11-19T03:41:36.438Z,12.52
2022-11-19T03:44:16.899Z,11.95
2022-11-19T03:46:47.986Z,12.70
2022-11-19T03:49:21.026Z,12.13
2022-11-19T03:51:52.214Z,11.82
2022-11-19T03:54:21.136Z,12.63
2022-11-19T03:56:51.509Z,11.85
2022-11-19T03:59:22.515Z,12.43
2022-11-19T04:01:54.879Z,12.57
2022-11-19T04:04:39.685Z,11.48
2022-11-19T04:07:11.028Z,12.40
2022-11-19T04:09:40.947Z,12.73
2022-11-19T04:12:14.403Z,12.35
2022-11-19T04:14:43.605Z,12.15
2022-11-19T04:17:12.086Z,12.73
2022-11-19T04:19:42.499Z,11.80
2022-11-19T04:22:13.475Z,11.48
2022-11-19T04:24:42.528Z,12.50
2022-11-19T04:27:11.117Z,11.52
2022-11-19T04:29:39.945Z,12.48
2022-11-19T04:32:08.186Z,13.82
2022-11-19T04:34:36.583Z,12.95
2022-11-19T04:37:06.186Z,14.40
2022-11-19T04:39:35.096Z,14.43
2022-11-19T04:42:03.305Z,13.25
2022-11-19T04:44:33.042Z,13.07
2022-11-19T04:47:01.284Z,13.30
2022-11-19T04:49:29.830Z,13.10
2022-11-19T04:51:58.325Z,12.10
2022-11-19T04:54:28.007Z,13.00
2022-11-19T04:56:56.042Z,13.18
2022-11-19T04:59:24.485Z,13.48
2022-11-19T05:01:52.745Z,12.40
2022-11-19T05:04:21.652Z,12.98
2022-11-19T05:06:49.650Z,13.05
2022-11-19T05:09:18.384Z,14.10
2022-11-19T05:11:48.136Z,19.27
2022-11-19T05:14:16.643Z,22.10
2022-11-19T05:16:44.736Z,21.08
2022-11-19T05:19:13.389Z,19.48
2022-11-19T05:21:41.536Z,17.45
2022-11-19T05:24:10.339Z,16.13
2022-11-19T05:26:38.318Z,17.33
2022-11-19T05:29:08.291Z,15.93
2022-11-19T05:31:36.436Z,15.00
2022-11-19T05:34:04.973Z,16.05
2022-11-19T05:36:33.056Z,15.45
2022-11-19T05:39:01.564Z,14.48
2022-11-19T05:41:29.661Z,14.00
2022-11-19T05:43:58.146Z,14.05
2022-11-19T05:46:27.639Z,14.98
2022-11-19T05:48:56.217Z,17.70
2022-11-19T05:51:24.431Z,15.45
2022-11-19T05:53:53.017Z,13.75
2022-11-19T05:56:21.199Z,15.10
2022-11-19T05:58:49.745Z,13.55
2022-11-19T06:01:17.860Z,15.00
2022-11-19T06:03:47.672Z,17.00
2022-11-19T06:06:15.682Z,19.45
2022-11-19T06:08:44.111Z,19.85
2022-11-19T06:11:33.075Z,18.83
2022-11-19T06:14:01.477Z,21.42
2022-11-19T06:16:29.866Z,19.17
2022-11-19T06:18:59.647Z,17.90
2022-11-19T06:21:27.772Z,20.00
2022-11-19T06:23:56.139Z,17.40
2022-11-19T06:26:25.259Z,17.15
2022-11-19T06:28:53.661Z,17.10
2022-11-19T06:31:22.239Z,16.77
2022-11-19T06:33:53.416Z,15.88
2022-11-19T06:36:26.149Z,16.60
2022-11-19T06:38:55.881Z,16.98
2022-11-19T06:41:24.011Z,16.40
2022-11-19T06:43:52.542Z,15.43
2022-11-19T06:46:20.750Z,15.65
2022-11-19T06:48:49.106Z,15.65
2022-11-19T06:51:17.115Z,14.93
2022-11-19T06:53:46.903Z,15.25
2022-11-19T06:56:14.987Z,14.70
2022-11-19T06:58:43.439Z,17.20
2022-11-19T07:01:11.505Z,17.15
2022-11-19T07:03:39.842Z,17.42
2022-11-19T07:06:08.543Z,17.85
2022-11-19T07:08:37.851Z,18.85
2022-11-19T07:11:21.510Z,19.52
2022-11-19T07:13:59.188Z,20.13
2022-11-19T07:16:32.215Z,18.40
2022-11-19T07:19:01.594Z,19.58
2022-11-19T07:21:30.946Z,19.30
2022-11-19T07:24:00.584Z,23.65
2022-11-19T07:26:31.842Z,31.00
2022-11-19T07:29:04.619Z,25.45
2022-11-19T07:31:33.606Z,53.72
2022-11-19T07:34:02.429Z,67.50
2022-11-19T07:36:30.431Z,28.00
2022-11-19T07:38:58.820Z,44.03
2022-11-19T07:41:44.344Z,23.73
2022-11-19T07:44:14.181Z,18.08
2022-11-19T07:46:42.732Z,16.70
2022-11-19T07:49:11.183Z,17.30
2022-11-19T07:51:39.464Z,17.13
2022-11-19T07:54:09.383Z,16.77
2022-11-19T07:56:37.685Z,16.27
2022-11-19T07:59:06.086Z,15.50
2022-11-19T08:01:35.752Z,15.15
2022-11-19T08:04:05.438Z,16.83
2022-11-19T08:06:34.766Z,17.13
2022-11-19T08:09:05.696Z,15.38
2022-11-19T08:11:34.129Z,15.98
2022-11-19T08:14:02.886Z,15.07
2022-11-19T08:16:51.041Z,14.23
2022-11-19T08:19:20.970Z,19.77
2022-11-19T08:21:49.408Z,23.70
2022-11-19T08:24:20.749Z,13.80
2022-11-19T08:26:50.133Z,14.05
2022-11-19T08:29:20.601Z,14.40
2022-11-19T08:31:49.600Z,11.80
2022-11-19T08:34:18.310Z,15.02
2022-11-19T08:36:48.015Z,15.48
2022-11-19T08:39:16.470Z,14.93
2022-11-19T08:42:02.036Z,14.50
2022-11-19T08:44:30.541Z,15.02
2022-11-19T08:46:58.661Z,16.88
2022-11-19T08:49:27.119Z,15.50
2022-11-19T08:51:57.644Z,16.42
2022-11-19T08:54:26.062Z,15.13
2022-11-19T08:56:54.471Z,13.90
2022-11-19T08:59:23.065Z,14.82
2022-11-19T09:01:51.271Z,16.67
2022-11-19T09:04:19.951Z,16.27
2022-11-19T09:06:48.329Z,17.48
2022-11-19T09:09:18.172Z,15.30
2022-11-19T09:11:46.275Z,14.50
2022-11-19T09:14:14.652Z,16.30
2022-11-19T09:16:42.800Z,15.30
2022-11-19T09:19:11.209Z,17.92
2022-11-19T09:21:39.370Z,21.13
2022-11-19T09:24:07.967Z,18.42
2022-11-19T09:26:37.574Z,15.55
2022-11-19T09:29:06.027Z,14.93
2022-11-19T09:31:34.094Z,14.68
2022-11-19T09:34:02.566Z,15.82
2022-11-19T09:36:30.695Z,16.38
2022-11-19T09:38:59.531Z,15.60
2022-11-19T09:41:45.515Z,15.45
2022-11-19T09:44:23.779Z,14.85
2022-11-19T09:46:57.942Z,15.20
2022-11-19T09:49:29.897Z,18.67
2022-11-19T09:52:02.317Z,16.55
2022-11-19T09:54:30.883Z,16.48
2022-11-19T09:57:04.589Z,18.27
2022-11-19T09:59:35.229Z,36.78
2022-11-19T10:02:08.296Z,51.90
2022-11-19T10:04:38.661Z,23.40
2022-11-19T10:07:12.721Z,36.13
2022-11-19T10:09:52.180Z,25.88
2022-11-19T10:12:31.700Z,18.20
2022-11-19T10:15:13.072Z,19.55
2022-11-19T10:17:49.166Z,15.07
2022-11-19T10:20:29.291Z,15.27
2022-11-19T10:23:00.492Z,16.92
2022-11-19T10:28:05.206Z,30.58
2022-11-19T10:30:33.568Z,18.13
2022-11-19T10:33:04.804Z,17.58
2022-11-19T10:38:03.680Z,16.45
2022-11-19T10:40:40.994Z,15.82
2022-11-19T10:43:22.115Z,15.02
2022-11-19T10:45:51.579Z,15.52
2022-11-19T10:48:23.392Z,16.05
2022-11-19T10:50:52.336Z,16.77
2022-11-19T10:53:25.038Z,19.60
2022-11-19T10:55:56.310Z,18.20
2022-11-19T10:58:27.356Z,17.98
2022-11-19T11:03:26.861Z,23.83
2022-11-19T11:05:58.416Z,16.83
2022-11-19T11:08:27.167Z,16.83
2022-11-19T11:10:56.376Z,15.18
2022-11-19T11:13:57.457Z,14.73
2022-11-19T11:16:27.730Z,18.05
2022-11-19T11:18:58.121Z,25.83
2022-11-19T11:21:36.029Z,14.70
2022-11-19T11:24:06.399Z,14.07
2022-11-19T11:26:36.441Z,12.70
2022-11-19T11:29:08.796Z,12.23
2022-11-19T11:31:39.660Z,14.13
2022-11-19T11:34:10.912Z,14.48
2022-11-19T11:36:39.669Z,12.52
2022-11-19T11:39:07.929Z,15.35
2022-11-19T11:44:31.599Z,10.55
2022-11-19T11:47:03.568Z,11.15
2022-11-19T11:49:33.590Z,10.95
2022-11-19T11:52:20.482Z,11.18
2022-11-19T11:55:00.227Z,13.77
2022-11-19T11:57:30.222Z,12.30
2022-11-19T11:59:59.927Z,15.10
2022-11-19T12:02:31.413Z,13.35
2022-11-19T12:05:02.278Z,14.93
2022-11-19T12:07:47.724Z,14.40
2022-11-19T12:10:25.518Z,13.98
2022-11-19T12:13:19.186Z,11.38
2022-11-19T12:15:56.116Z,13.90
2022-11-19T12:18:32.093Z,12.38
2022-11-19T12:21:04.346Z,11.23
2022-11-19T12:23:48.834Z,10.63
2022-11-19T12:26:22.695Z,12.10
2022-11-19T12:29:02.761Z,11.48
2022-11-19T12:31:44.486Z,10.93
2022-11-19T12:34:28.821Z,10.75
2022-11-19T12:37:02.556Z,9.73
2022-11-19T12:39:40.052Z,10.57
2022-11-19T12:42:21.852Z,13.30
2022-11-19T12:44:57.038Z,11.52
2022-11-19T12:47:43.529Z,12.60
2022-11-19T12:50:19.842Z,13.50
2022-11-19T12:53:14.043Z,12.35
2022-11-19T12:55:49.591Z,12.13
2022-11-19T12:58:25.634Z,11.15
2022-11-19T13:00:57.398Z,13.60
2022-11-19T13:03:42.312Z,12.02
2022-11-19T13:06:18.028Z,11.27
2022-11-19T13:08:50.120Z,11.93
2022-11-19T13:11:21.807Z,12.95
2022-11-19T13:16:21.560Z,11.45
2022-11-19T13:18:53.955Z,11.68
2022-11-19T13:21:27.757Z,9.98
2022-11-19T13:23:57.879Z,9.90
2022-11-19T13:26:30.422Z,11.02
2022-11-19T13:29:04.106Z,10.15
2022-11-19T13:31:36.943Z,10.85
2022-11-19T13:34:15.587Z,11.95
2022-11-19T13:36:46.524Z,11.90
2022-11-19T13:39:18.871Z,11.50
2022-11-19T13:42:07.944Z,10.95
2022-11-19T13:44:41.216Z,12.32
2022-11-19T13:47:14.716Z,11.82
2022-11-19T13:49:45.805Z,11.20
2022-11-19T13:54:45.969Z,11.20
2022-11-19T13:57:27.154Z,15.25
2022-11-19T14:00:00.608Z,12.15
2022-11-19T14:02:45.629Z,14.52
2022-11-19T14:05:48.002Z,15.85
2022-11-19T14:08:25.299Z,15.52
2022-11-19T14:11:08.513Z,15.00
2022-11-19T14:14:00.134Z,12.73
2022-11-19T14:16:49.975Z,13.98
2022-11-19T14:19:37.071Z,14.63
2022-11-19T14:22:51.325Z,13.80
2022-11-19T14:25:59.388Z,15.63
2022-11-19T14:28:47.763Z,15.55
2022-11-19T14:31:16.875Z,13.98
2022-11-19T14:34:04.377Z,18.55
2022-11-19T14:36:44.177Z,18.48
2022-11-19T14:39:20.857Z,19.85
2022-11-19T14:42:15.768Z,20.08
2022-11-19T14:44:44.659Z,16.30
2022-11-19T14:47:34.596Z,18.58
2022-11-19T14:50:04.749Z,16.55
2022-11-19T14:52:35.642Z,25.65
2022-11-19T14:55:07.064Z,44.58
2022-11-19T14:57:37.681Z,24.75
2022-11-19T15:00:08.466Z,29.73
2022-11-19T15:02:39.661Z,22.98
2022-11-19T15:05:18.329Z,13.68
2022-11-19T15:07:52.926Z,17.73
2022-11-19T15:10:50.087Z,17.58
2022-11-19T15:13:28.778Z,17.98
2022-11-19T15:16:07.529Z,17.48
2022-11-19T15:19:14.587Z,15.82
2022-11-19T15:22:15.724Z,17.02
2022-11-19T15:25:03.706Z,16.92
2022-11-19T15:27:47.462Z,16.60
2022-11-19T15:30:17.944Z,16.40
2022-11-19T15:32:59.080Z,15.27
2022-11-19T15:38:30.278Z,16.35
2022-11-19T15:41:01.958Z,17.20
2022-11-19T15:43:33.672Z,16.58
2022-11-19T15:46:06.429Z,17.85
2022-11-19T15:48:38.382Z,20.17
2022-11-19T15:51:08.613Z,20.63
2022-11-19T15:53:36.771Z,18.08
2022-11-19T15:56:07.652Z,19.45
2022-11-19T15:58:39.642Z,19.50
2022-11-19T16:01:09.555Z,21.10
2022-11-19T16:03:40.257Z,21.52
2022-11-19T16:06:10.430Z,23.08
2022-11-19T16:08:39.143Z,22.98
2022-11-19T16:11:25.081Z,19.63
2022-11-19T16:14:12.984Z,20.02
2022-11-19T16:16:58.663Z,21.02
2022-11-19T16:19:26.783Z,20.60
2022-11-19T16:21:57.533Z,21.85
2022-11-19T16:24:44.171Z,25.10
2022-11-19T16:27:13.896Z,21.65
2022-11-19T16:29:44.138Z,22.25
2022-11-19T16:32:18.021Z,23.70
2022-11-19T16:34:46.344Z,24.27
2022-11-19T16:37:15.633Z,25.10
2022-11-19T16:39:45.093Z,30.73
2022-11-19T16:42:17.148Z,30.85
2022-11-19T16:44:48.575Z,24.98
2022-11-19T16:47:22.253Z,23.45
2022-11-19T16:50:00.023Z,26.20
2022-11-19T16:52:39.356Z,28.55
2022-11-19T16:55:30.388Z,33.30
2022-11-19T16:58:00.090Z,30.20
2022-11-19T17:00:33.156Z,31.52
2022-11-19T17:03:04.216Z,29.85
2022-11-19T17:05:33.224Z,28.98
2022-11-19T17:08:06.524Z,27.38
2022-11-19T17:10:35.644Z,29.58
2022-11-19T17:13:05.892Z,28.40
2022-11-19T17:15:38.677Z,28.60
2022-11-19T17:18:16.640Z,27.20
2022-11-19T17:20:53.153Z,25.92
2022-11-19T17:23:23.022Z,28.38
2022-11-19T17:25:52.790Z,27.92
2022-11-19T17:28:22.930Z,28.10
2022-11-19T17:30:52.664Z,28.35
2022-11-19T17:33:23.005Z,34.15
2022-11-19T17:35:52.073Z,30.88
2022-11-19T17:38:23.966Z,32.42
2022-11-19T17:40:53.855Z,33.67
2022-11-19T17:43:42.794Z,29.02
2022-11-19T17:46:12.341Z,25.92
2022-11-19T17:48:42.439Z,26.52
2022-11-19T17:51:12.945Z,22.27
2022-11-19T17:53:41.675Z,24.30
2022-11-19T17:56:16.839Z,22.20
2022-11-19T17:58:45.260Z,21.23
2022-11-19T18:01:15.396Z,24.17
2022-11-19T18:03:44.078Z,22.77
2022-11-19T18:06:12.784Z,20.63
2022-11-19T18:08:42.274Z,21.50
2022-11-19T18:11:13.362Z,22.73
2022-11-19T18:16:16.069Z,24.17
2022-11-19T18:18:45.108Z,27.08
2022-11-19T18:21:14.362Z,23.95
2022-11-19T18:23:44.151Z,23.25
2022-11-19T18:26:12.767Z,24.80
2022-11-19T18:28:44.968Z,25.35
2022-11-19T18:31:17.618Z,24.58
2022-11-19T18:33:48.037Z,23.02
2022-11-19T18:36:16.274Z,24.15
2022-11-19T18:38:45.060Z,23.15
2022-11-19T18:41:14.588Z,23.48
2022-11-19T18:44:01.009Z,23.20
2022-11-19T18:46:30.429Z,24.42
2022-11-19T18:48:58.849Z,23.75
2022-11-19T18:51:28.172Z,21.92
2022-11-19T18:53:56.526Z,25.00
2022-11-19T18:56:24.774Z,25.95
2022-11-19T18:58:53.529Z,25.77
2022-11-19T19:01:24.110Z,25.45
2022-11-19T19:03:54.008Z,56.53
2022-11-19T19:06:23.220Z,25.52
2022-11-19T19:08:52.053Z,28.65
2022-11-19T19:11:37.640Z,28.40
2022-11-19T19:14:06.132Z,28.92
2022-11-19T19:16:34.820Z,40.25
2022-11-19T19:19:05.216Z,36.72
2022-11-19T19:21:33.529Z,29.05
2022-11-19T19:24:05.357Z,26.73
2022-11-19T19:26:33.507Z,23.92
2022-11-19T19:29:02.249Z,23.90
2022-11-19T19:31:30.368Z,23.58
2022-11-19T19:33:58.822Z,23.48
2022-11-19T19:36:28.845Z,24.17
2022-11-19T19:38:57.358Z,27.20
2022-11-19T19:41:27.193Z,26.98
2022-11-19T19:43:57.390Z,24.13
2022-11-19T19:46:25.702Z,25.98
2022-11-19T19:48:56.112Z,24.30
2022-11-19T19:51:25.528Z,22.33
2022-11-19T19:53:55.867Z,24.48
2022-11-19T19:56:25.485Z,22.58
2022-11-19T19:58:54.090Z,25.65
2022-11-19T20:01:24.613Z,24.13
2022-11-19T20:03:54.812Z,24.45
2022-11-19T20:06:24.554Z,24.73
2022-11-19T20:08:53.207Z,24.33
2022-11-19T20:11:25.163Z,29.75
2022-11-19T20:13:54.492Z,25.45
2022-11-19T20:16:23.770Z,23.75
2022-11-19T20:18:53.068Z,23.50
2022-11-19T20:21:22.821Z,20.35
2022-11-19T20:23:51.588Z,22.27
2022-11-19T20:26:21.322Z,22.75
2022-11-19T20:28:55.564Z,23.60
2022-11-19T20:31:24.451Z,24.17
2022-11-19T20:33:55.167Z,24.63
2022-11-19T20:36:24.605Z,26.10
2022-11-19T20:38:53.305Z,25.55
2022-11-19T20:41:39.281Z,26.65
2022-11-19T20:44:24.184Z,27.70
2022-11-19T20:46:53.696Z,28.55
2022-11-19T20:49:24.058Z,29.02
2022-11-19T20:51:52.834Z,30.33
2022-11-19T20:54:22.435Z,29.27
2022-11-19T20:56:51.928Z,31.02
2022-11-19T20:59:22.602Z,31.33
2022-11-19T21:01:51.673Z,34.80
2022-11-19T21:04:20.688Z,32.03
2022-11-19T21:06:50.045Z,33.58
2022-11-19T21:09:19.853Z,33.38
2022-11-19T21:11:48.746Z,35.20
2022-11-19T21:14:17.107Z,75.38
2022-11-19T21:16:46.779Z,40.65
2022-11-19T21:19:15.642Z,35.08
2022-11-19T21:21:44.289Z,36.55
2022-11-19T21:24:13.148Z,38.55
2022-11-19T21:26:41.678Z,41.03
2022-11-19T21:29:10.072Z,34.25
2022-11-19T21:31:42.721Z,35.15
2022-11-19T21:34:14.336Z,34.97
2022-11-19T21:39:11.848Z,35.28
2022-11-19T21:41:40.147Z,36.13
2022-11-19T21:44:08.571Z,38.30
2022-11-19T21:46:37.238Z,35.60
2022-11-19T21:49:06.344Z,36.63
2022-11-19T21:51:35.940Z,37.53
2022-11-19T21:54:04.509Z,35.25
2022-11-19T21:56:38.270Z,37.33
2022-11-19T21:59:07.818Z,36.78
2022-11-19T22:01:36.573Z,37.92
2022-11-19T22:04:06.131Z,36.17
2022-11-19T22:06:35.791Z,36.08
2022-11-19T22:09:04.223Z,39.97
2022-11-19T22:11:32.693Z,38.67
2022-11-19T22:14:02.436Z,38.75
2022-11-19T22:16:31.310Z,36.65
2022-11-19T22:19:00.068Z,36.25
2022-11-19T22:21:29.197Z,36.53
2022-11-19T22:23:59.174Z,35.47
2022-11-19T22:26:27.758Z,36.90
2022-11-19T22:28:56.398Z,35.75
2022-11-19T22:31:25.627Z,37.47
2022-11-19T22:33:54.152Z,37.47
2022-11-19T22:36:23.192Z,39.85
2022-11-19T22:38:52.024Z,40.05
2022-11-19T22:41:22.891Z,39.42
2022-11-19T22:43:52.145Z,40.58
2022-11-19T22:46:20.882Z,40.08
2022-11-19T22:48:49.352Z,40.55
2022-11-19T22:51:18.811Z,40.75
2022-11-19T22:53:47.560Z,42.13
2022-11-19T22:56:17.522Z,40.40
2022-11-19T22:58:47.803Z,41.22
2022-11-19T23:01:18.376Z,40.80
2022-11-19T23:03:47.525Z,41.55
2022-11-19T23:06:16.095Z,43.47
2022-11-19T23:08:44.811Z,43.70
2022-11-19T23:11:14.604Z,41.20
2022-11-19T23:13:44.107Z,40.78
2022-11-19T23:16:15.604Z,42.10
2022-11-19T23:18:48.192Z,40.92
2022-11-19T23:21:17.846Z,40.15
2022-11-19T23:23:46.367Z,41.17
2022-11-19T23:26:16.314Z,41.58
2022-11-19T23:28:44.879Z,42.13
2022-11-19T23:31:18.834Z,39.83
2022-11-19T23:33:47.676Z,40.92
2022-11-19T23:36:18.083Z,43.17
2022-11-19T23:38:46.909Z,40.85
2022-11-19T23:41:17.161Z,44.83
2022-11-19T23:43:46.255Z,41.88
2022-11-19T23:46:18.016Z,41.10
2022-11-19T23:48:48.004Z,42.00
2022-11-19T23:51:17.998Z,42.47
2022-11-19T23:53:46.470Z,40.30
2022-11-19T23:56:16.015Z,42.97
2022-11-19T23:58:44.748Z,37.45
